sensor_id;sensor_type;location;lat;lon;timestamp;pressure;altitude;pressure_sealevel;temperature
78917;BMP280;68315;48.608;11.436;2023-04-25T00:01:58;96589.34;;;6.33
78917;BMP280;68315;48.608;11.436;2023-04-25T00:04:25;96593.31;;;6.32
78917;BMP280;68315;48.608;11.436;2023-04-25T00:06:50;96591.84;;;6.31
78917;BMP280;68315;48.608;11.436;2023-04-25T00:09:17;96583.66;;;6.31
78917;BMP280;68315;48.608;11.436;2023-04-25T00:11:42;96590.56;;;6.32
78917;BMP280;68315;48.608;11.436;2023-04-25T00:14:09;96595.59;;;6.28
78917;BMP280;68315;48.608;11.436;2023-04-25T00:16:35;96588.44;;;6.25
78917;BMP280;68315;48.608;11.436;2023-04-25T00:19:01;96587.50;;;6.22
78917;BMP280;68315;48.608;11.436;2023-04-25T00:21:28;96586.28;;;6.18
78917;BMP280;68315;48.608;11.436;2023-04-25T00:23:54;96588.38;;;6.12
78917;BMP280;68315;48.608;11.436;2023-04-25T00:26:19;96585.38;;;6.10
78917;BMP280;68315;48.608;11.436;2023-04-25T00:28:46;96589.88;;;6.07
78917;BMP280;68315;48.608;11.436;2023-04-25T00:31:11;96596.28;;;6.10
78917;BMP280;68315;48.608;11.436;2023-04-25T00:33:37;96582.91;;;6.12
78917;BMP280;68315;48.608;11.436;2023-04-25T00:36:02;96585.38;;;6.10
78917;BMP280;68315;48.608;11.436;2023-04-25T00:38:28;96589.38;;;6.09
78917;BMP280;68315;48.608;11.436;2023-04-25T00:40:53;96591.81;;;6.12
78917;BMP280;68315;48.608;11.436;2023-04-25T00:43:20;96588.56;;;6.14
78917;BMP280;68315;48.608;11.436;2023-04-25T00:45:47;96588.78;;;6.16
78917;BMP280;68315;48.608;11.436;2023-04-25T00:48:14;96591.72;;;6.18
78917;BMP280;68315;48.608;11.436;2023-04-25T00:50:39;96590.00;;;6.15
78917;BMP280;68315;48.608;11.436;2023-04-25T00:53:05;96580.91;;;6.12
78917;BMP280;68315;48.608;11.436;2023-04-25T00:55:31;96586.66;;;6.09
78917;BMP280;68315;48.608;11.436;2023-04-25T00:57:57;96582.66;;;6.10
78917;BMP280;68315;48.608;11.436;2023-04-25T01:00:23;96583.19;;;6.08
78917;BMP280;68315;48.608;11.436;2023-04-25T01:02:49;96584.63;;;6.09
78917;BMP280;68315;48.608;11.436;2023-04-25T01:05:15;96577.44;;;6.12
78917;BMP280;68315;48.608;11.436;2023-04-25T01:07:40;96577.44;;;6.12
78917;BMP280;68315;48.608;11.436;2023-04-25T01:10:06;96582.34;;;6.13
78917;BMP280;68315;48.608;11.436;2023-04-25T01:12:32;96577.88;;;6.16
78917;BMP280;68315;48.608;11.436;2023-04-25T01:14:57;96579.09;;;6.15
78917;BMP280;68315;48.608;11.436;2023-04-25T01:17:23;96583.31;;;6.16
78917;BMP280;68315;48.608;11.436;2023-04-25T01:19:49;96583.53;;;6.18
78917;BMP280;68315;48.608;11.436;2023-04-25T01:22:15;96582.56;;;6.15
78917;BMP280;68315;48.608;11.436;2023-04-25T01:24:41;96572.94;;;6.14
78917;BMP280;68315;48.608;11.436;2023-04-25T01:27:07;96575.13;;;6.16
78917;BMP280;68315;48.608;11.436;2023-04-25T01:29:34;96572.41;;;6.16
78917;BMP280;68315;48.608;11.436;2023-04-25T01:32:00;96581.56;;;6.18
78917;BMP280;68315;48.608;11.436;2023-04-25T01:34:25;96581.59;;;6.13
78917;BMP280;68315;48.608;11.436;2023-04-25T01:36:51;96573.44;;;6.13
78917;BMP280;68315;48.608;11.436;2023-04-25T01:39:17;96567.97;;;6.13
78917;BMP280;68315;48.608;11.436;2023-04-25T01:41:42;96561.09;;;6.12
78917;BMP280;68315;48.608;11.436;2023-04-25T01:44:08;96564.00;;;6.14
78917;BMP280;68315;48.608;11.436;2023-04-25T01:46:34;96560.00;;;6.20
78917;BMP280;68315;48.608;11.436;2023-04-25T01:48:59;96567.38;;;6.25
78917;BMP280;68315;48.608;11.436;2023-04-25T01:51:25;96557.63;;;6.30
78917;BMP280;68315;48.608;11.436;2023-04-25T01:53:50;96563.53;;;6.34
78917;BMP280;68315;48.608;11.436;2023-04-25T01:56:17;96566.72;;;6.38
78917;BMP280;68315;48.608;11.436;2023-04-25T01:58:43;96570.94;;;6.39
78917;BMP280;68315;48.608;11.436;2023-04-25T02:01:08;96565.16;;;6.43
78917;BMP280;68315;48.608;11.436;2023-04-25T02:03:34;96566.88;;;6.46
78917;BMP280;68315;48.608;11.436;2023-04-25T02:05:59;96558.53;;;6.57
78917;BMP280;68315;48.608;11.436;2023-04-25T02:08:25;96550.03;;;6.60
78917;BMP280;68315;48.608;11.436;2023-04-25T02:10:51;96538.69;;;6.56
78917;BMP280;68315;48.608;11.436;2023-04-25T02:13:17;96541.91;;;6.55
78917;BMP280;68315;48.608;11.436;2023-04-25T02:15:42;96555.91;;;6.51
78917;BMP280;68315;48.608;11.436;2023-04-25T02:18:07;96556.84;;;6.54
78917;BMP280;68315;48.608;11.436;2023-04-25T02:20:35;96556.19;;;6.48
78917;BMP280;68315;48.608;11.436;2023-04-25T02:23:01;96562.66;;;6.45
78917;BMP280;68315;48.608;11.436;2023-04-25T02:25:27;96562.38;;;6.48
78917;BMP280;68315;48.608;11.436;2023-04-25T02:27:52;96555.91;;;6.51
78917;BMP280;68315;48.608;11.436;2023-04-25T02:30:17;96551.06;;;6.57
78917;BMP280;68315;48.608;11.436;2023-04-25T02:32:43;96539.78;;;6.66
78917;BMP280;68315;48.608;11.436;2023-04-25T02:35:09;96544.69;;;6.73
78917;BMP280;68315;48.608;11.436;2023-04-25T02:37:36;96551.59;;;6.74
78917;BMP280;68315;48.608;11.436;2023-04-25T02:40:02;96546.66;;;6.73
78917;BMP280;68315;48.608;11.436;2023-04-25T02:42:28;96544.44;;;6.71
78917;BMP280;68315;48.608;11.436;2023-04-25T02:44:53;96536.78;;;6.70
78917;BMP280;68315;48.608;11.436;2023-04-25T02:47:19;96548.53;;;6.65
78917;BMP280;68315;48.608;11.436;2023-04-25T02:49:44;96549.81;;;6.58
78917;BMP280;68315;48.608;11.436;2023-04-25T02:52:10;96541.19;;;6.54
78917;BMP280;68315;48.608;11.436;2023-04-25T02:54:35;96543.72;;;6.52
78917;BMP280;68315;48.608;11.436;2023-04-25T02:57:01;96536.56;;;6.49
78917;BMP280;68315;48.608;11.436;2023-04-25T02:59:28;96538.59;;;6.43
78917;BMP280;68315;48.608;11.436;2023-04-25T03:01:53;96533.66;;;6.42
78917;BMP280;68315;48.608;11.436;2023-04-25T03:04:18;96536.19;;;6.40
78917;BMP280;68315;48.608;11.436;2023-04-25T03:06:44;96539.22;;;6.36
78917;BMP280;68315;48.608;11.436;2023-04-25T03:09:09;96534.78;;;6.33
78917;BMP280;68315;48.608;11.436;2023-04-25T03:11:35;96533.28;;;6.32
78917;BMP280;68315;48.608;11.436;2023-04-25T03:14:00;96531.59;;;6.29
78917;BMP280;68315;48.608;11.436;2023-04-25T03:16:25;96528.84;;;6.29
78917;BMP280;68315;48.608;11.436;2023-04-25T03:18:51;96525.16;;;6.26
78917;BMP280;68315;48.608;11.436;2023-04-25T03:21:16;96522.25;;;6.24
78917;BMP280;68315;48.608;11.436;2023-04-25T03:23:42;96524.00;;;6.22
78917;BMP280;68315;48.608;11.436;2023-04-25T03:26:07;96518.34;;;6.20
78917;BMP280;68315;48.608;11.436;2023-04-25T03:28:32;96519.09;;;6.15
78917;BMP280;68315;48.608;11.436;2023-04-25T03:30:58;96523.41;;;6.10
78917;BMP280;68315;48.608;11.436;2023-04-25T03:33:23;96528.84;;;6.10
78917;BMP280;68315;48.608;11.436;2023-04-25T03:35:49;96520.91;;;6.12
78917;BMP280;68315;48.608;11.436;2023-04-25T03:38:15;96524.56;;;6.15
78917;BMP280;68315;48.608;11.436;2023-04-25T03:40:40;96533.50;;;6.15
78917;BMP280;68315;48.608;11.436;2023-04-25T03:43:06;96532.72;;;6.20
78917;BMP280;68315;48.608;11.436;2023-04-25T03:45:31;96530.22;;;6.22
78917;BMP280;68315;48.608;11.436;2023-04-25T03:47:56;96528.63;;;6.27
78917;BMP280;68315;48.608;11.436;2023-04-25T03:50:22;96535.78;;;6.30
78917;BMP280;68315;48.608;11.436;2023-04-25T03:52:47;96533.28;;;6.32
78917;BMP280;68315;48.608;11.436;2023-04-25T03:55:13;96530.56;;;6.32
78917;BMP280;68315;48.608;11.436;2023-04-25T03:57:38;96530.28;;;6.35
78917;BMP280;68315;48.608;11.436;2023-04-25T04:00:04;96523.06;;;6.38
78917;BMP280;68315;48.608;11.436;2023-04-25T04:02:29;96520.59;;;6.40
78917;BMP280;68315;48.608;11.436;2023-04-25T04:04:54;96520.97;;;6.44
78917;BMP280;68315;48.608;11.436;2023-04-25T04:07:21;96516.00;;;6.48
78917;BMP280;68315;48.608;11.436;2023-04-25T04:09:47;96517.22;;;6.47
78917;BMP280;68315;48.608;11.436;2023-04-25T04:12:12;96521.94;;;6.47
78917;BMP280;68315;48.608;11.436;2023-04-25T04:14:37;96524.41;;;6.50
78917;BMP280;68315;48.608;11.436;2023-04-25T04:17:06;96521.66;;;6.50
78917;BMP280;68315;48.608;11.436;2023-04-25T04:19:33;96515.69;;;6.52
78917;BMP280;68315;48.608;11.436;2023-04-25T04:21:58;96522.81;;;6.55
78917;BMP280;68315;48.608;11.436;2023-04-25T04:24:23;96520.34;;;6.57
78917;BMP280;68315;48.608;11.436;2023-04-25T04:26:49;96509.09;;;6.60
78917;BMP280;68315;48.608;11.436;2023-04-25T04:29:15;96512.47;;;6.66
78917;BMP280;68315;48.608;11.436;2023-04-25T04:31:47;96521.22;;;6.65
78917;BMP280;68315;48.608;11.436;2023-04-25T04:34:13;96527.94;;;6.64
78917;BMP280;68315;48.608;11.436;2023-04-25T04:36:38;96532.06;;;6.70
78917;BMP280;68315;48.608;11.436;2023-04-25T04:39:05;96531.78;;;6.74
78917;BMP280;68315;48.608;11.436;2023-04-25T04:41:30;96536.16;;;6.77
78917;BMP280;68315;48.608;11.436;2023-04-25T04:43:56;96541.13;;;6.78
78917;BMP280;68315;48.608;11.436;2023-04-25T04:46:21;96535.13;;;6.80
78917;BMP280;68315;48.608;11.436;2023-04-25T04:48:46;96534.41;;;6.79
78917;BMP280;68315;48.608;11.436;2023-04-25T04:51:12;96534.41;;;6.79
78917;BMP280;68315;48.608;11.436;2023-04-25T04:53:37;96542.06;;;6.81
78917;BMP280;68315;48.608;11.436;2023-04-25T04:56:03;96543.03;;;6.83
78917;BMP280;68315;48.608;11.436;2023-04-25T04:58:28;96544.72;;;6.86
78917;BMP280;68315;48.608;11.436;2023-04-25T05:00:55;96545.91;;;6.91
78917;BMP280;68315;48.608;11.436;2023-04-25T05:03:20;96545.50;;;7.00
78917;BMP280;68315;48.608;11.436;2023-04-25T05:05:45;96535.53;;;7.02
78917;BMP280;68315;48.608;11.436;2023-04-25T05:08:11;96536.47;;;7.05
78917;BMP280;68315;48.608;11.436;2023-04-25T05:10:36;96540.53;;;7.17
78917;BMP280;68315;48.608;11.436;2023-04-25T05:13:01;96544.00;;;7.18
78917;BMP280;68315;48.608;11.436;2023-04-25T05:15:27;96541.47;;;7.20
78917;BMP280;68315;48.608;11.436;2023-04-25T05:17:53;96543.16;;;7.23
78917;BMP280;68315;48.608;11.436;2023-04-25T05:20:18;96543.41;;;7.25
78917;BMP280;68315;48.608;11.436;2023-04-25T05:22:44;96542.56;;;7.30
78917;BMP280;68315;48.608;11.436;2023-04-25T05:25:09;96534.38;;;7.30
78917;BMP280;68315;48.608;11.436;2023-04-25T05:27:35;96541.59;;;7.27
78917;BMP280;68315;48.608;11.436;2023-04-25T05:30:00;96537.59;;;7.28
78917;BMP280;68315;48.608;11.436;2023-04-25T05:32:26;96541.06;;;7.29
78917;BMP280;68315;48.608;11.436;2023-04-25T05:34:51;96539.31;;;7.31
78917;BMP280;68315;48.608;11.436;2023-04-25T05:37:17;96539.09;;;7.29
78917;BMP280;68315;48.608;11.436;2023-04-25T05:39:42;96533.53;;;7.35
78917;BMP280;68315;48.608;11.436;2023-04-25T05:42:07;96537.75;;;7.36
78917;BMP280;68315;48.608;11.436;2023-04-25T05:44:33;96533.44;;;7.40
78917;BMP280;68315;48.608;11.436;2023-04-25T05:46:58;96534.59;;;7.45
78917;BMP280;68315;48.608;11.436;2023-04-25T05:49:24;96534.72;;;7.52
78917;BMP280;68315;48.608;11.436;2023-04-25T05:51:49;96537.75;;;7.62
78917;BMP280;68315;48.608;11.436;2023-04-25T05:54:14;96529.81;;;7.64
78917;BMP280;68315;48.608;11.436;2023-04-25T05:56:40;96528.03;;;7.66
78917;BMP280;68315;48.608;11.436;2023-04-25T05:59:05;96527.47;;;7.68
78917;BMP280;68315;48.608;11.436;2023-04-25T06:01:31;96515.38;;;7.76
78917;BMP280;68315;48.608;11.436;2023-04-25T06:03:56;96525.38;;;7.74
78917;BMP280;68315;48.608;11.436;2023-04-25T06:06:22;96521.19;;;7.86
78917;BMP280;68315;48.608;11.436;2023-04-25T06:08:47;96517.41;;;7.89
78917;BMP280;68315;48.608;11.436;2023-04-25T06:11:12;96520.53;;;8.06
78917;BMP280;68315;48.608;11.436;2023-04-25T06:13:41;96520.72;;;8.21
78917;BMP280;68315;48.608;11.436;2023-04-25T06:16:06;96524.72;;;8.33
78917;BMP280;68315;48.608;11.436;2023-04-25T06:18:32;96516.25;;;8.44
78917;BMP280;68315;48.608;11.436;2023-04-25T06:20:57;96524.66;;;8.46
78917;BMP280;68315;48.608;11.436;2023-04-25T06:23:23;96515.59;;;8.51
78917;BMP280;68315;48.608;11.436;2023-04-25T06:25:48;96515.47;;;8.57
78917;BMP280;68315;48.608;11.436;2023-04-25T06:28:13;96507.66;;;8.61
78917;BMP280;68315;48.608;11.436;2023-04-25T06:30:38;96514.84;;;8.64
78917;BMP280;68315;48.608;11.436;2023-04-25T06:33:04;96518.63;;;8.61
78917;BMP280;68315;48.608;11.436;2023-04-25T06:35:29;96511.91;;;8.62
78917;BMP280;68315;48.608;11.436;2023-04-25T06:37:54;96515.00;;;8.66
78917;BMP280;68315;48.608;11.436;2023-04-25T06:40:20;96516.22;;;8.78
78917;BMP280;68315;48.608;11.436;2023-04-25T06:42:45;96523.34;;;8.94
78917;BMP280;68315;48.608;11.436;2023-04-25T06:45:10;96522.94;;;9.11
78917;BMP280;68315;48.608;11.436;2023-04-25T06:47:38;96517.09;;;9.14
78917;BMP280;68315;48.608;11.436;2023-04-25T06:50:06;96511.50;;;9.20
78917;BMP280;68315;48.608;11.436;2023-04-25T06:52:39;96519.22;;;9.21
78917;BMP280;68315;48.608;11.436;2023-04-25T06:55:39;96519.91;;;9.22
78917;BMP280;68315;48.608;11.436;2023-04-25T06:58:55;96521.84;;;9.34
78917;BMP280;68315;48.608;11.436;2023-04-25T07:57:47;96502.13;;;12.11
78917;BMP280;68315;48.608;11.436;2023-04-25T08:00:19;96495.66;;;11.76
78917;BMP280;68315;48.608;11.436;2023-04-25T08:02:54;96498.31;;;11.37
78917;BMP280;68315;48.608;11.436;2023-04-25T08:05:22;96506.19;;;11.03
78917;BMP280;68315;48.608;11.436;2023-04-25T08:07:50;96509.66;;;10.80
78917;BMP280;68315;48.608;11.436;2023-04-25T08:10:16;96511.66;;;10.57
78917;BMP280;68315;48.608;11.436;2023-04-25T08:12:44;96514.94;;;10.48
78917;BMP280;68315;48.608;11.436;2023-04-25T08:17:58;96526.09;;;10.43
78917;BMP280;68315;48.608;11.436;2023-04-25T08:20:27;96526.81;;;10.36
78917;BMP280;68315;48.608;11.436;2023-04-25T08:23:13;96519.97;;;10.29
78917;BMP280;68315;48.608;11.436;2023-04-25T08:25:38;96523.69;;;10.32
78917;BMP280;68315;48.608;11.436;2023-04-25T08:28:09;96529.00;;;10.45
78917;BMP280;68315;48.608;11.436;2023-04-25T08:30:40;96524.56;;;11.23
78917;BMP280;68315;48.608;11.436;2023-04-25T08:33:08;96519.81;;;11.93
78917;BMP280;68315;48.608;11.436;2023-04-25T08:36:06;96507.50;;;12.66
78917;BMP280;68315;48.608;11.436;2023-04-25T08:38:43;96511.06;;;12.84
78917;BMP280;68315;48.608;11.436;2023-04-25T08:45:26;96519.22;;;12.99
78917;BMP280;68315;48.608;11.436;2023-04-25T08:48:13;96523.03;;;13.62
78917;BMP280;68315;48.608;11.436;2023-04-25T08:54:55;96522.06;;;13.50
78917;BMP280;68315;48.608;11.436;2023-04-25T08:58:11;96525.09;;;13.20
78917;BMP280;68315;48.608;11.436;2023-04-25T09:00:46;96527.66;;;13.01
78917;BMP280;68315;48.608;11.436;2023-04-25T09:03:12;96524.63;;;12.89
78917;BMP280;68315;48.608;11.436;2023-04-25T09:06:03;96526.19;;;13.00
78917;BMP280;68315;48.608;11.436;2023-04-25T09:08:52;96525.25;;;13.05
78917;BMP280;68315;48.608;11.436;2023-04-25T09:11:19;96528.00;;;13.29
78917;BMP280;68315;48.608;11.436;2023-04-25T09:13:45;96528.78;;;13.39
78917;BMP280;68315;48.608;11.436;2023-04-25T09:16:10;96533.75;;;13.24
78917;BMP280;68315;48.608;11.436;2023-04-25T09:18:37;96532.41;;;13.49
78917;BMP280;68315;48.608;11.436;2023-04-25T09:21:11;96540.81;;;13.51
78917;BMP280;68315;48.608;11.436;2023-04-25T09:23:46;96539.16;;;13.31
78917;BMP280;68315;48.608;11.436;2023-04-25T09:26:31;96547.75;;;13.18
78917;BMP280;68315;48.608;11.436;2023-04-25T09:29:06;96545.66;;;13.26
78917;BMP280;68315;48.608;11.436;2023-04-25T09:31:35;96551.44;;;13.38
78917;BMP280;68315;48.608;11.436;2023-04-25T09:34:01;96551.72;;;13.49
78917;BMP280;68315;48.608;11.436;2023-04-25T09:36:27;96556.00;;;13.43
78917;BMP280;68315;48.608;11.436;2023-04-25T09:38:57;96562.72;;;13.32
78917;BMP280;68315;48.608;11.436;2023-04-25T09:41:24;96553.56;;;13.30
78917;BMP280;68315;48.608;11.436;2023-04-25T09:43:50;96555.72;;;13.31
78917;BMP280;68315;48.608;11.436;2023-04-25T09:46:15;96563.06;;;13.36
78917;BMP280;68315;48.608;11.436;2023-04-25T09:48:47;96562.03;;;13.83
78917;BMP280;68315;48.608;11.436;2023-04-25T09:51:13;96566.69;;;14.68
78917;BMP280;68315;48.608;11.436;2023-04-25T09:53:41;96556.38;;;15.14
78917;BMP280;68315;48.608;11.436;2023-04-25T09:56:10;96568.00;;;15.03
78917;BMP280;68315;48.608;11.436;2023-04-25T09:58:37;96567.81;;;14.65
78917;BMP280;68315;48.608;11.436;2023-04-25T10:01:05;96574.16;;;14.05
78917;BMP280;68315;48.608;11.436;2023-04-25T10:03:32;96574.69;;;13.52
78917;BMP280;68315;48.608;11.436;2023-04-25T10:06:07;96584.75;;;13.15
78917;BMP280;68315;48.608;11.436;2023-04-25T10:08:36;96586.38;;;13.43
78917;BMP280;68315;48.608;11.436;2023-04-25T10:11:06;96579.31;;;13.67
78917;BMP280;68315;48.608;11.436;2023-04-25T10:13:33;96585.44;;;13.82
78917;BMP280;68315;48.608;11.436;2023-04-25T10:19:02;96582.56;;;14.07
78917;BMP280;68315;48.608;11.436;2023-04-25T10:21:28;96590.31;;;13.91
78917;BMP280;68315;48.608;11.436;2023-04-25T10:23:55;96582.56;;;13.73
78917;BMP280;68315;48.608;11.436;2023-04-25T10:26:21;96588.16;;;13.48
78917;BMP280;68315;48.608;11.436;2023-04-25T10:28:58;96590.03;;;13.21
78917;BMP280;68315;48.608;11.436;2023-04-25T10:31:24;96591.69;;;12.92
78917;BMP280;68315;48.608;11.436;2023-04-25T10:33:49;96597.94;;;12.60
78917;BMP280;68315;48.608;11.436;2023-04-25T10:36:18;96596.56;;;12.44
78917;BMP280;68315;48.608;11.436;2023-04-25T10:38:45;96602.66;;;12.35
78917;BMP280;68315;48.608;11.436;2023-04-25T10:41:12;96600.63;;;12.35
78917;BMP280;68315;48.608;11.436;2023-04-25T10:43:41;96599.16;;;12.42
78917;BMP280;68315;48.608;11.436;2023-04-25T10:46:14;96603.44;;;12.28
78917;BMP280;68315;48.608;11.436;2023-04-25T10:48:45;96610.00;;;12.40
78917;BMP280;68315;48.608;11.436;2023-04-25T10:51:19;96602.97;;;12.46
78917;BMP280;68315;48.608;11.436;2023-04-25T10:53:46;96603.66;;;12.54
78917;BMP280;68315;48.608;11.436;2023-04-25T10:56:27;96616.25;;;12.73
78917;BMP280;68315;48.608;11.436;2023-04-25T11:01:35;96605.63;;;13.26
78917;BMP280;68315;48.608;11.436;2023-04-25T11:04:28;96613.63;;;13.56
78917;BMP280;68315;48.608;11.436;2023-04-25T11:09:36;96608.19;;;13.90
78917;BMP280;68315;48.608;11.436;2023-04-25T11:12:03;96615.88;;;14.09
78917;BMP280;68315;48.608;11.436;2023-04-25T11:14:29;96615.09;;;13.99
78917;BMP280;68315;48.608;11.436;2023-04-25T11:16:55;96613.88;;;13.92
78917;BMP280;68315;48.608;11.436;2023-04-25T11:19:24;96612.66;;;13.86
78917;BMP280;68315;48.608;11.436;2023-04-25T11:21:49;96625.81;;;13.78
78917;BMP280;68315;48.608;11.436;2023-04-25T11:24:18;96609.69;;;13.67
78917;BMP280;68315;48.608;11.436;2023-04-25T11:26:46;96605.59;;;13.50
78917;BMP280;68315;48.608;11.436;2023-04-25T11:29:12;96601.78;;;13.46
78917;BMP280;68315;48.608;11.436;2023-04-25T11:31:38;96602.25;;;13.35
78917;BMP280;68315;48.608;11.436;2023-04-25T11:34:03;96611.66;;;13.32
78917;BMP280;68315;48.608;11.436;2023-04-25T11:36:28;96610.13;;;13.14
78917;BMP280;68315;48.608;11.436;2023-04-25T11:38:53;96613.66;;;13.07
78917;BMP280;68315;48.608;11.436;2023-04-25T11:41:19;96615.69;;;13.06
78917;BMP280;68315;48.608;11.436;2023-04-25T11:43:45;96617.13;;;13.15
78917;BMP280;68315;48.608;11.436;2023-04-25T11:46:11;96613.06;;;13.16
78917;BMP280;68315;48.608;11.436;2023-04-25T11:48:39;96626.72;;;13.31
78917;BMP280;68315;48.608;11.436;2023-04-25T11:51:05;96618.38;;;13.38
78917;BMP280;68315;48.608;11.436;2023-04-25T11:53:30;96624.13;;;13.58
78917;BMP280;68315;48.608;11.436;2023-04-25T11:55:56;96631.31;;;13.61
78917;BMP280;68315;48.608;11.436;2023-04-25T11:58:21;96628.69;;;13.63
78917;BMP280;68315;48.608;11.436;2023-04-25T12:00:46;96630.69;;;13.62
78917;BMP280;68315;48.608;11.436;2023-04-25T12:03:12;96627.22;;;13.62
78917;BMP280;68315;48.608;11.436;2023-04-25T12:05:37;96631.34;;;13.53
78917;BMP280;68315;48.608;11.436;2023-04-25T12:08:12;96635.97;;;13.50
78917;BMP280;68315;48.608;11.436;2023-04-25T12:10:39;96631.81;;;13.42
78917;BMP280;68315;48.608;11.436;2023-04-25T12:13:19;96632.69;;;13.44
78917;BMP280;68315;48.608;11.436;2023-04-25T12:15:45;96641.19;;;13.39
78917;BMP280;68315;48.608;11.436;2023-04-25T12:18:10;96640.53;;;13.31
78917;BMP280;68315;48.608;11.436;2023-04-25T12:20:36;96635.84;;;13.16
78917;BMP280;68315;48.608;11.436;2023-04-25T12:23:05;96632.38;;;13.16
78917;BMP280;68315;48.608;11.436;2023-04-25T12:25:42;96632.16;;;13.21
78917;BMP280;68315;48.608;11.436;2023-04-25T12:28:19;96638.66;;;13.33
78917;BMP280;68315;48.608;11.436;2023-04-25T12:30:54;96627.59;;;13.41
78917;BMP280;68315;48.608;11.436;2023-04-25T12:33:24;96633.59;;;13.30
78917;BMP280;68315;48.608;11.436;2023-04-25T12:35:49;96635.91;;;12.77
78917;BMP280;68315;48.608;11.436;2023-04-25T12:38:22;96641.56;;;12.39
78917;BMP280;68315;48.608;11.436;2023-04-25T12:40:47;96647.56;;;11.98
78917;BMP280;68315;48.608;11.436;2023-04-25T12:43:12;96648.66;;;11.42
78917;BMP280;68315;48.608;11.436;2023-04-25T12:45:37;96650.81;;;11.06
78917;BMP280;68315;48.608;11.436;2023-04-25T12:48:03;96654.38;;;10.70
78917;BMP280;68315;48.608;11.436;2023-04-25T12:50:28;96652.78;;;10.47
78917;BMP280;68315;48.608;11.436;2023-04-25T12:52:56;96653.44;;;10.32
78917;BMP280;68315;48.608;11.436;2023-04-25T12:55:21;96666.56;;;10.19
78917;BMP280;68315;48.608;11.436;2023-04-25T12:57:46;96662.63;;;10.06
78917;BMP280;68315;48.608;11.436;2023-04-25T13:00:12;96665.50;;;10.01
78917;BMP280;68315;48.608;11.436;2023-04-25T13:02:54;96660.09;;;9.88
78917;BMP280;68315;48.608;11.436;2023-04-25T13:05:26;96667.94;;;9.84
78917;BMP280;68315;48.608;11.436;2023-04-25T13:07:51;96671.22;;;9.82
78917;BMP280;68315;48.608;11.436;2023-04-25T13:10:17;96671.28;;;9.90
78917;BMP280;68315;48.608;11.436;2023-04-25T13:12:43;96675.78;;;10.00
78917;BMP280;68315;48.608;11.436;2023-04-25T13:15:09;96691.03;;;9.88
78917;BMP280;68315;48.608;11.436;2023-04-25T13:17:38;96701.94;;;9.60
78917;BMP280;68315;48.608;11.436;2023-04-25T13:20:07;96701.41;;;9.41
78917;BMP280;68315;48.608;11.436;2023-04-25T13:22:40;96710.72;;;9.25
78917;BMP280;68315;48.608;11.436;2023-04-25T13:25:09;96715.50;;;9.11
78917;BMP280;68315;48.608;11.436;2023-04-25T13:27:35;96714.16;;;9.05
78917;BMP280;68315;48.608;11.436;2023-04-25T13:30:24;96711.41;;;9.05
78917;BMP280;68315;48.608;11.436;2023-04-25T13:33:12;96713.44;;;9.04
78917;BMP280;68315;48.608;11.436;2023-04-25T13:35:50;96703.59;;;9.09
78917;BMP280;68315;48.608;11.436;2023-04-25T13:38:23;96707.50;;;9.13
78917;BMP280;68315;48.608;11.436;2023-04-25T13:40:52;96699.69;;;9.17
78917;BMP280;68315;48.608;11.436;2023-04-25T13:43:20;96717.09;;;9.07
78917;BMP280;68315;48.608;11.436;2023-04-25T13:45:47;96718.34;;;9.06
78917;BMP280;68315;48.608;11.436;2023-04-25T13:48:15;96712.03;;;9.11
78917;BMP280;68315;48.608;11.436;2023-04-25T13:50:41;96719.28;;;9.21
78917;BMP280;68315;48.608;11.436;2023-04-25T13:53:06;96715.63;;;9.40
78917;BMP280;68315;48.608;11.436;2023-04-25T13:55:34;96711.78;;;9.76
78917;BMP280;68315;48.608;11.436;2023-04-25T13:58:01;96711.03;;;10.17
78917;BMP280;68315;48.608;11.436;2023-04-25T14:00:32;96712.84;;;10.15
78917;BMP280;68315;48.608;11.436;2023-04-25T14:03:09;96719.72;;;9.87
78917;BMP280;68315;48.608;11.436;2023-04-25T14:05:35;96737.34;;;9.71
78917;BMP280;68315;48.608;11.436;2023-04-25T14:08:13;96736.25;;;9.54
78917;BMP280;68315;48.608;11.436;2023-04-25T14:10:42;96725.88;;;9.39
78917;BMP280;68315;48.608;11.436;2023-04-25T14:13:12;96730.94;;;9.35
78917;BMP280;68315;48.608;11.436;2023-04-25T14:15:41;96738.31;;;9.40
78917;BMP280;68315;48.608;11.436;2023-04-25T14:18:12;96743.34;;;9.49
78917;BMP280;68315;48.608;11.436;2023-04-25T14:20:40;96740.63;;;9.49
78917;BMP280;68315;48.608;11.436;2023-04-25T14:23:06;96744.84;;;9.37
78917;BMP280;68315;48.608;11.436;2023-04-25T14:25:31;96744.47;;;9.20
78917;BMP280;68315;48.608;11.436;2023-04-25T14:27:59;96745.66;;;9.11
78917;BMP280;68315;48.608;11.436;2023-04-25T14:30:25;96745.75;;;9.06
78917;BMP280;68315;48.608;11.436;2023-04-25T14:32:51;96733.06;;;8.95
78917;BMP280;68315;48.608;11.436;2023-04-25T14:35:16;96734.84;;;8.93
78917;BMP280;68315;48.608;11.436;2023-04-25T14:37:42;96737.59;;;8.93
78917;BMP280;68315;48.608;11.436;2023-04-25T14:40:08;96741.88;;;8.88
78917;BMP280;68315;48.608;11.436;2023-04-25T14:42:38;96750.53;;;8.92
78917;BMP280;68315;48.608;11.436;2023-04-25T14:45:05;96765.59;;;8.99
78917;BMP280;68315;48.608;11.436;2023-04-25T14:47:31;96775.06;;;8.72
78917;BMP280;68315;48.608;11.436;2023-04-25T14:49:56;96771.41;;;8.56
78917;BMP280;68315;48.608;11.436;2023-04-25T14:52:22;96774.84;;;8.56
78917;BMP280;68315;48.608;11.436;2023-04-25T14:54:47;96771.59;;;8.58
78917;BMP280;68315;48.608;11.436;2023-04-25T14:57:13;96776.44;;;8.52
78917;BMP280;68315;48.608;11.436;2023-04-25T14:59:41;96788.13;;;8.52
78917;BMP280;68315;48.608;11.436;2023-04-25T15:02:06;96796.34;;;8.52
78917;BMP280;68315;48.608;11.436;2023-04-25T15:04:32;96795.91;;;8.48
78917;BMP280;68315;48.608;11.436;2023-04-25T15:06:57;96799.91;;;8.47
78917;BMP280;68315;48.608;11.436;2023-04-25T15:09:22;96807.38;;;8.47
78917;BMP280;68315;48.608;11.436;2023-04-25T15:11:52;96807.94;;;8.45
78917;BMP280;68315;48.608;11.436;2023-04-25T15:14:17;96813.41;;;8.45
78917;BMP280;68315;48.608;11.436;2023-04-25T15:16:45;96806.88;;;8.48
78917;BMP280;68315;48.608;11.436;2023-04-25T15:19:13;96811.91;;;8.57
78917;BMP280;68315;48.608;11.436;2023-04-25T15:21:39;96803.19;;;8.59
78917;BMP280;68315;48.608;11.436;2023-04-25T15:24:04;96806.69;;;8.60